sensor_id;sensor_type;location;lat;lon;timestamp;temperature;humidity
34815;DHT22;21030;53.912;15.214;2023-12-07T00:00:06;26.10;21.30
34815;DHT22;21030;53.912;15.214;2023-12-07T00:02:33;26.40;21.10
34815;DHT22;21030;53.912;15.214;2023-12-07T00:05:00;26.70;21.10
34815;DHT22;21030;53.912;15.214;2023-12-07T00:07:27;27.20;20.80
34815;DHT22;21030;53.912;15.214;2023-12-07T00:09:54;27.00;20.60
34815;DHT22;21030;53.912;15.214;2023-12-07T00:12:21;27.30;20.60
34815;DHT22;21030;53.912;15.214;2023-12-07T00:14:49;26.60;20.60
34815;DHT22;21030;53.912;15.214;2023-12-07T00:17:16;26.50;20.70
34815;DHT22;21030;53.912;15.214;2023-12-07T00:19:44;26.70;20.80
34815;DHT22;21030;53.912;15.214;2023-12-07T00:22:11;27.60;20.50
34815;DHT22;21030;53.912;15.214;2023-12-07T00:24:38;27.70;20.30
34815;DHT22;21030;53.912;15.214;2023-12-07T00:27:05;26.90;20.10
34815;DHT22;21030;53.912;15.214;2023-12-07T00:29:32;27.40;20.40
34815;DHT22;21030;53.912;15.214;2023-12-07T00:31:59;27.80;20.30
34815;DHT22;21030;53.912;15.214;2023-12-07T00:34:28;27.20;20.40
34815;DHT22;21030;53.912;15.214;2023-12-07T00:36:55;27.20;20.60
34815;DHT22;21030;53.912;15.214;2023-12-07T00:39:22;27.20;20.40
34815;DHT22;21030;53.912;15.214;2023-12-07T00:41:49;27.50;20.30
34815;DHT22;21030;53.912;15.214;2023-12-07T00:44:16;27.80;20.20
34815;DHT22;21030;53.912;15.214;2023-12-07T00:46:43;28.10;19.90
34815;DHT22;21030;53.912;15.214;2023-12-07T00:49:10;27.50;20.00
34815;DHT22;21030;53.912;15.214;2023-12-07T00:51:37;27.70;20.10
34815;DHT22;21030;53.912;15.214;2023-12-07T00:54:05;27.60;20.30
34815;DHT22;21030;53.912;15.214;2023-12-07T00:56:32;27.10;20.40
34815;DHT22;21030;53.912;15.214;2023-12-07T00:58:59;27.20;20.40
34815;DHT22;21030;53.912;15.214;2023-12-07T01:01:27;25.80;21.00
34815;DHT22;21030;53.912;15.214;2023-12-07T01:03:55;27.00;20.90
34815;DHT22;21030;53.912;15.214;2023-12-07T01:06:22;26.50;20.50
34815;DHT22;21030;53.912;15.214;2023-12-07T01:08:49;26.10;21.00
34815;DHT22;21030;53.912;15.214;2023-12-07T01:11:16;26.00;21.10
34815;DHT22;21030;53.912;15.214;2023-12-07T01:13:43;26.50;21.10
34815;DHT22;21030;53.912;15.214;2023-12-07T01:16:10;26.20;20.90
34815;DHT22;21030;53.912;15.214;2023-12-07T01:18:37;26.50;21.10
34815;DHT22;21030;53.912;15.214;2023-12-07T01:21:05;27.00;20.70
34815;DHT22;21030;53.912;15.214;2023-12-07T01:23:33;26.80;20.80
34815;DHT22;21030;53.912;15.214;2023-12-07T01:26:00;26.80;20.40
34815;DHT22;21030;53.912;15.214;2023-12-07T01:28:29;26.60;20.70
34815;DHT22;21030;53.912;15.214;2023-12-07T01:30:56;26.70;20.90
34815;DHT22;21030;53.912;15.214;2023-12-07T01:33:23;27.30;20.70
34815;DHT22;21030;53.912;15.214;2023-12-07T01:35:50;26.70;20.60
34815;DHT22;21030;53.912;15.214;2023-12-07T01:38:18;27.00;20.70
34815;DHT22;21030;53.912;15.214;2023-12-07T01:40:46;27.40;20.50
34815;DHT22;21030;53.912;15.214;2023-12-07T01:43:13;27.40;20.30
34815;DHT22;21030;53.912;15.214;2023-12-07T01:45:40;25.60;20.60
34815;DHT22;21030;53.912;15.214;2023-12-07T01:48:08;26.50;20.90
34815;DHT22;21030;53.912;15.214;2023-12-07T01:50:35;25.60;21.10
34815;DHT22;21030;53.912;15.214;2023-12-07T01:53:03;26.40;21.10
34815;DHT22;21030;53.912;15.214;2023-12-07T01:55:35;26.10;21.00
34815;DHT22;21030;53.912;15.214;2023-12-07T01:58:04;26.30;21.20
34815;DHT22;21030;53.912;15.214;2023-12-07T02:00:32;26.90;20.80
34815;DHT22;21030;53.912;15.214;2023-12-07T02:03:04;26.40;21.10
34815;DHT22;21030;53.912;15.214;2023-12-07T02:05:33;26.10;21.00
34815;DHT22;21030;53.912;15.214;2023-12-07T02:08:00;26.80;20.90
34815;DHT22;21030;53.912;15.214;2023-12-07T02:10:29;26.40;20.70
34815;DHT22;21030;53.912;15.214;2023-12-07T02:12:56;26.70;20.80
34815;DHT22;21030;53.912;15.214;2023-12-07T02:15:24;26.60;21.20
34815;DHT22;21030;53.912;15.214;2023-12-07T02:20:51;25.70;21.30
34815;DHT22;21030;53.912;15.214;2023-12-07T02:23:21;26.00;21.30
34815;DHT22;21030;53.912;15.214;2023-12-07T02:26:08;26.90;21.00
34815;DHT22;21030;53.912;15.214;2023-12-07T02:28:38;26.90;20.70
34815;DHT22;21030;53.912;15.214;2023-12-07T02:31:05;26.10;20.50
34815;DHT22;21030;53.912;15.214;2023-12-07T02:33:32;26.30;20.80
34815;DHT22;21030;53.912;15.214;2023-12-07T02:36:00;26.30;21.00
34815;DHT22;21030;53.912;15.214;2023-12-07T02:38:28;26.40;21.10
34815;DHT22;21030;53.912;15.214;2023-12-07T02:40:56;25.90;21.30
34815;DHT22;21030;53.912;15.214;2023-12-07T02:43:24;25.60;21.30
34815;DHT22;21030;53.912;15.214;2023-12-07T02:45:51;25.80;21.30
34815;DHT22;21030;53.912;15.214;2023-12-07T02:48:20;25.40;21.60
34815;DHT22;21030;53.912;15.214;2023-12-07T02:50:47;25.00;21.50
34815;DHT22;21030;53.912;15.214;2023-12-07T02:53:14;26.00;21.30
34815;DHT22;21030;53.912;15.214;2023-12-07T02:55:41;26.00;21.20
34815;DHT22;21030;53.912;15.214;2023-12-07T02:58:08;26.00;21.50
34815;DHT22;21030;53.912;15.214;2023-12-07T03:00:36;26.30;21.80
34815;DHT22;21030;53.912;15.214;2023-12-07T03:03:03;26.40;21.00
34815;DHT22;21030;53.912;15.214;2023-12-07T03:05:30;26.00;21.00
34815;DHT22;21030;53.912;15.214;2023-12-07T03:07:57;25.90;21.30
34815;DHT22;21030;53.912;15.214;2023-12-07T03:10:24;25.70;21.30
34815;DHT22;21030;53.912;15.214;2023-12-07T03:12:51;25.50;21.50
34815;DHT22;21030;53.912;15.214;2023-12-07T03:15:18;26.10;21.60
34815;DHT22;21030;53.912;15.214;2023-12-07T03:17:45;25.30;21.80
34815;DHT22;21030;53.912;15.214;2023-12-07T03:20:12;24.90;22.10
34815;DHT22;21030;53.912;15.214;2023-12-07T03:22:40;24.90;22.00
34815;DHT22;21030;53.912;15.214;2023-12-07T03:25:07;24.80;22.50
34815;DHT22;21030;53.912;15.214;2023-12-07T03:27:34;24.60;22.10
34815;DHT22;21030;53.912;15.214;2023-12-07T03:30:01;24.90;22.10
34815;DHT22;21030;53.912;15.214;2023-12-07T03:32:29;24.50;22.10
34815;DHT22;21030;53.912;15.214;2023-12-07T03:34:56;24.50;22.50
34815;DHT22;21030;53.912;15.214;2023-12-07T03:37:23;24.70;22.70
34815;DHT22;21030;53.912;15.214;2023-12-07T03:39:50;25.00;22.40
34815;DHT22;21030;53.912;15.214;2023-12-07T03:42:17;25.00;22.30
34815;DHT22;21030;53.912;15.214;2023-12-07T03:45:05;25.40;22.20
34815;DHT22;21030;53.912;15.214;2023-12-07T03:47:32;26.20;21.80
34815;DHT22;21030;53.912;15.214;2023-12-07T03:49:59;26.60;21.90
34815;DHT22;21030;53.912;15.214;2023-12-07T03:52:26;26.70;21.20
34815;DHT22;21030;53.912;15.214;2023-12-07T03:54:54;26.60;21.10
34815;DHT22;21030;53.912;15.214;2023-12-07T03:57:21;26.10;21.40
34815;DHT22;21030;53.912;15.214;2023-12-07T03:59:48;26.80;21.30
34815;DHT22;21030;53.912;15.214;2023-12-07T04:02:16;27.00;20.90
34815;DHT22;21030;53.912;15.214;2023-12-07T04:04:43;26.90;21.00
34815;DHT22;21030;53.912;15.214;2023-12-07T04:07:10;26.80;21.20
34815;DHT22;21030;53.912;15.214;2023-12-07T04:09:37;25.90;20.90
34815;DHT22;21030;53.912;15.214;2023-12-07T04:12:04;26.00;21.60
34815;DHT22;21030;53.912;15.214;2023-12-07T04:14:31;26.50;21.60
34815;DHT22;21030;53.912;15.214;2023-12-07T04:16:59;26.60;21.00
34815;DHT22;21030;53.912;15.214;2023-12-07T04:19:26;26.60;21.30
34815;DHT22;21030;53.912;15.214;2023-12-07T04:21:53;26.70;21.40
34815;DHT22;21030;53.912;15.214;2023-12-07T04:24:20;27.00;21.10
34815;DHT22;21030;53.912;15.214;2023-12-07T04:26:47;26.80;21.30
34815;DHT22;21030;53.912;15.214;2023-12-07T04:29:15;27.10;20.90
34815;DHT22;21030;53.912;15.214;2023-12-07T04:31:42;27.40;20.80
34815;DHT22;21030;53.912;15.214;2023-12-07T04:34:11;26.80;20.70
34815;DHT22;21030;53.912;15.214;2023-12-07T04:36:38;27.10;20.90
34815;DHT22;21030;53.912;15.214;2023-12-07T04:39:05;27.20;21.00
34815;DHT22;21030;53.912;15.214;2023-12-07T04:41:32;27.00;21.00
34815;DHT22;21030;53.912;15.214;2023-12-07T04:43:59;27.00;20.90
34815;DHT22;21030;53.912;15.214;2023-12-07T04:46:26;27.20;20.90
34815;DHT22;21030;53.912;15.214;2023-12-07T04:48:53;27.50;20.90
34815;DHT22;21030;53.912;15.214;2023-12-07T04:51:20;27.10;20.80
34815;DHT22;21030;53.912;15.214;2023-12-07T04:53:47;26.90;21.10
34815;DHT22;21030;53.912;15.214;2023-12-07T04:56:14;27.00;21.10
34815;DHT22;21030;53.912;15.214;2023-12-07T04:58:41;27.10;21.20
34815;DHT22;21030;53.912;15.214;2023-12-07T05:01:08;27.40;21.00
34815;DHT22;21030;53.912;15.214;2023-12-07T05:03:36;27.60;20.80
34815;DHT22;21030;53.912;15.214;2023-12-07T05:06:03;27.40;20.80
34815;DHT22;21030;53.912;15.214;2023-12-07T05:08:31;27.10;21.00
34815;DHT22;21030;53.912;15.214;2023-12-07T05:10:58;26.70;21.10
34815;DHT22;21030;53.912;15.214;2023-12-07T05:13:25;26.50;21.40
34815;DHT22;21030;53.912;15.214;2023-12-07T05:15:52;26.40;21.60
34815;DHT22;21030;53.912;15.214;2023-12-07T05:18:19;26.60;21.30
34815;DHT22;21030;53.912;15.214;2023-12-07T05:20:46;26.80;21.30
34815;DHT22;21030;53.912;15.214;2023-12-07T05:23:14;27.30;21.10
34815;DHT22;21030;53.912;15.214;2023-12-07T05:25:41;26.60;21.20
34815;DHT22;21030;53.912;15.214;2023-12-07T05:28:08;26.40;21.40
34815;DHT22;21030;53.912;15.214;2023-12-07T05:30:36;26.70;21.40
34815;DHT22;21030;53.912;15.214;2023-12-07T05:33:03;26.90;21.40
34815;DHT22;21030;53.912;15.214;2023-12-07T05:35:30;26.70;21.20
34815;DHT22;21030;53.912;15.214;2023-12-07T05:37:57;26.70;21.50
34815;DHT22;21030;53.912;15.214;2023-12-07T05:40:25;26.20;21.20
34815;DHT22;21030;53.912;15.214;2023-12-07T05:42:53;26.50;21.50
34815;DHT22;21030;53.912;15.214;2023-12-07T05:45:20;26.80;21.30
34815;DHT22;21030;53.912;15.214;2023-12-07T05:47:48;25.80;21.50
34815;DHT22;21030;53.912;15.214;2023-12-07T05:50:15;26.20;21.70
34815;DHT22;21030;53.912;15.214;2023-12-07T05:52:42;26.50;21.50
34815;DHT22;21030;53.912;15.214;2023-12-07T05:55:09;26.80;21.40
34815;DHT22;21030;53.912;15.214;2023-12-07T05:57:36;26.90;21.30
34815;DHT22;21030;53.912;15.214;2023-12-07T06:00:04;26.40;21.30
34815;DHT22;21030;53.912;15.214;2023-12-07T06:02:36;26.60;21.40
34815;DHT22;21030;53.912;15.214;2023-12-07T06:05:03;26.80;21.50
34815;DHT22;21030;53.912;15.214;2023-12-07T06:07:33;26.60;21.00
34815;DHT22;21030;53.912;15.214;2023-12-07T06:10:06;27.30;21.30
34815;DHT22;21030;53.912;15.214;2023-12-07T06:12:33;27.30;21.10
34815;DHT22;21030;53.912;15.214;2023-12-07T06:15:01;27.20;21.00
34815;DHT22;21030;53.912;15.214;2023-12-07T06:17:28;26.90;21.30
34815;DHT22;21030;53.912;15.214;2023-12-07T06:19:55;26.70;21.40
34815;DHT22;21030;53.912;15.214;2023-12-07T06:22:22;27.10;21.30
34815;DHT22;21030;53.912;15.214;2023-12-07T06:24:50;27.50;21.00
34815;DHT22;21030;53.912;15.214;2023-12-07T06:27:17;27.90;20.80
34815;DHT22;21030;53.912;15.214;2023-12-07T06:29:46;28.00;20.40
34815;DHT22;21030;53.912;15.214;2023-12-07T06:32:15;27.90;20.60
34815;DHT22;21030;53.912;15.214;2023-12-07T06:34:42;28.00;20.50
34815;DHT22;21030;53.912;15.214;2023-12-07T06:37:09;27.60;20.60
34815;DHT22;21030;53.912;15.214;2023-12-07T06:39:38;27.40;20.80
34815;DHT22;21030;53.912;15.214;2023-12-07T06:42:05;27.10;21.00
34815;DHT22;21030;53.912;15.214;2023-12-07T06:44:33;27.50;20.90
34815;DHT22;21030;53.912;15.214;2023-12-07T06:47:00;26.80;21.00
34815;DHT22;21030;53.912;15.214;2023-12-07T06:49:30;27.00;21.40
34815;DHT22;21030;53.912;15.214;2023-12-07T06:52:12;26.40;21.10
34815;DHT22;21030;53.912;15.214;2023-12-07T06:54:40;26.50;21.50
34815;DHT22;21030;53.912;15.214;2023-12-07T06:57:07;26.60;21.50
34815;DHT22;21030;53.912;15.214;2023-12-07T06:59:34;26.20;21.40
34815;DHT22;21030;53.912;15.214;2023-12-07T07:02:01;26.50;21.60
34815;DHT22;21030;53.912;15.214;2023-12-07T07:04:29;26.80;21.50
34815;DHT22;21030;53.912;15.214;2023-12-07T07:06:58;27.20;21.20
34815;DHT22;21030;53.912;15.214;2023-12-07T07:09:25;27.10;21.20
34815;DHT22;21030;53.912;15.214;2023-12-07T07:11:52;27.20;21.20
34815;DHT22;21030;53.912;15.214;2023-12-07T07:14:20;26.80;21.00
34815;DHT22;21030;53.912;15.214;2023-12-07T07:16:47;27.00;21.90
34815;DHT22;21030;53.912;15.214;2023-12-07T07:19:14;27.30;21.00
34815;DHT22;21030;53.912;15.214;2023-12-07T07:21:44;27.40;21.20
34815;DHT22;21030;53.912;15.214;2023-12-07T07:24:11;26.70;21.40
34815;DHT22;21030;53.912;15.214;2023-12-07T07:26:41;27.10;21.40
34815;DHT22;21030;53.912;15.214;2023-12-07T07:29:08;27.70;21.10
34815;DHT22;21030;53.912;15.214;2023-12-07T07:31:35;27.40;20.90
34815;DHT22;21030;53.912;15.214;2023-12-07T07:34:03;27.40;21.20
34815;DHT22;21030;53.912;15.214;2023-12-07T07:36:34;27.40;21.10
34815;DHT22;21030;53.912;15.214;2023-12-07T07:39:01;27.90;20.90
34815;DHT22;21030;53.912;15.214;2023-12-07T07:41:28;28.00;20.80
34815;DHT22;21030;53.912;15.214;2023-12-07T07:43:55;27.90;20.60
34815;DHT22;21030;53.912;15.214;2023-12-07T07:46:22;28.10;20.70
34815;DHT22;21030;53.912;15.214;2023-12-07T07:48:49;27.60;20.60
34815;DHT22;21030;53.912;15.214;2023-12-07T07:51:17;27.60;20.80
34815;DHT22;21030;53.912;15.214;2023-12-07T07:53:45;27.70;20.90
34815;DHT22;21030;53.912;15.214;2023-12-07T07:56:12;27.70;20.80
34815;DHT22;21030;53.912;15.214;2023-12-07T07:58:39;28.00;20.90
34815;DHT22;21030;53.912;15.214;2023-12-07T08:01:07;27.50;21.10
34815;DHT22;21030;53.912;15.214;2023-12-07T08:03:34;27.40;21.10
34815;DHT22;21030;53.912;15.214;2023-12-07T08:06:01;27.10;21.40
34815;DHT22;21030;53.912;15.214;2023-12-07T08:08:28;27.30;21.20
34815;DHT22;21030;53.912;15.214;2023-12-07T08:10:56;27.50;21.40
34815;DHT22;21030;53.912;15.214;2023-12-07T08:13:23;27.90;21.00
34815;DHT22;21030;53.912;15.214;2023-12-07T08:15:51;27.90;21.10
34815;DHT22;21030;53.912;15.214;2023-12-07T08:18:23;27.20;21.30
34815;DHT22;21030;53.912;15.214;2023-12-07T08:20:50;27.30;21.10
34815;DHT22;21030;53.912;15.214;2023-12-07T08:23:17;27.50;21.20
34815;DHT22;21030;53.912;15.214;2023-12-07T08:25:46;27.50;21.00
34815;DHT22;21030;53.912;15.214;2023-12-07T08:28:15;27.40;21.30
34815;DHT22;21030;53.912;15.214;2023-12-07T08:30:43;27.60;21.40
34815;DHT22;21030;53.912;15.214;2023-12-07T08:33:10;28.00;21.10
34815;DHT22;21030;53.912;15.214;2023-12-07T08:35:37;27.90;21.10
34815;DHT22;21030;53.912;15.214;2023-12-07T08:38:04;27.30;21.40
34815;DHT22;21030;53.912;15.214;2023-12-07T08:40:31;27.20;21.30
34815;DHT22;21030;53.912;15.214;2023-12-07T08:43:01;27.70;21.40
34815;DHT22;21030;53.912;15.214;2023-12-07T08:45:28;27.70;21.20
34815;DHT22;21030;53.912;15.214;2023-12-07T08:47:55;28.00;21.30
34815;DHT22;21030;53.912;15.214;2023-12-07T08:50:22;27.90;20.90
34815;DHT22;21030;53.912;15.214;2023-12-07T08:52:50;27.90;21.20
34815;DHT22;21030;53.912;15.214;2023-12-07T08:55:25;27.50;21.20
34815;DHT22;21030;53.912;15.214;2023-12-07T08:57:53;27.90;21.40
34815;DHT22;21030;53.912;15.214;2023-12-07T09:00:21;28.00;21.30
34815;DHT22;21030;53.912;15.214;2023-12-07T09:02:51;28.00;21.10
34815;DHT22;21030;53.912;15.214;2023-12-07T09:05:20;28.10;21.20
34815;DHT22;21030;53.912;15.214;2023-12-07T09:07:47;27.90;21.00
34815;DHT22;21030;53.912;15.214;2023-12-07T09:10:14;28.20;21.10
34815;DHT22;21030;53.912;15.214;2023-12-07T09:12:42;28.00;21.20
34815;DHT22;21030;53.912;15.214;2023-12-07T09:15:09;27.90;21.30
34815;DHT22;21030;53.912;15.214;2023-12-07T09:17:39;28.20;21.10
34815;DHT22;21030;53.912;15.214;2023-12-07T09:20:07;28.00;21.30
34815;DHT22;21030;53.912;15.214;2023-12-07T09:22:45;28.00;21.20
34815;DHT22;21030;53.912;15.214;2023-12-07T09:25:15;27.80;21.20
34815;DHT22;21030;53.912;15.214;2023-12-07T09:27:43;28.00;21.30
34815;DHT22;21030;53.912;15.214;2023-12-07T09:30:10;28.10;21.40
34815;DHT22;21030;53.912;15.214;2023-12-07T09:32:42;28.40;21.10
34815;DHT22;21030;53.912;15.214;2023-12-07T09:35:12;28.00;20.80
34815;DHT22;21030;53.912;15.214;2023-12-07T09:37:49;28.00;21.40
34815;DHT22;21030;53.912;15.214;2023-12-07T09:40:18;28.10;21.20
34815;DHT22;21030;53.912;15.214;2023-12-07T09:42:47;28.40;21.10
34815;DHT22;21030;53.912;15.214;2023-12-07T09:45:15;28.60;21.00
34815;DHT22;21030;53.912;15.214;2023-12-07T09:47:49;28.50;21.00
34815;DHT22;21030;53.912;15.214;2023-12-07T09:50:19;28.10;21.20
34815;DHT22;21030;53.912;15.214;2023-12-07T09:52:52;28.10;21.30
34815;DHT22;21030;53.912;15.214;2023-12-07T09:55:33;28.40;21.10
34815;DHT22;21030;53.912;15.214;2023-12-07T09:58:03;28.20;21.20
34815;DHT22;21030;53.912;15.214;2023-12-07T10:00:30;28.10;21.10
34815;DHT22;21030;53.912;15.214;2023-12-07T10:02:57;28.40;21.20
34815;DHT22;21030;53.912;15.214;2023-12-07T10:05:26;28.40;21.00
34815;DHT22;21030;53.912;15.214;2023-12-07T10:07:53;28.50;21.00
34815;DHT22;21030;53.912;15.214;2023-12-07T10:10:21;28.50;20.90
34815;DHT22;21030;53.912;15.214;2023-12-07T10:12:54;28.70;20.90
34815;DHT22;21030;53.912;15.214;2023-12-07T10:15:23;28.30;21.10
34815;DHT22;21030;53.912;15.214;2023-12-07T10:20:21;28.10;21.30
34815;DHT22;21030;53.912;15.214;2023-12-07T10:23:06;28.50;21.00
34815;DHT22;21030;53.912;15.214;2023-12-07T10:25:40;28.60;20.90
34815;DHT22;21030;53.912;15.214;2023-12-07T10:28:09;29.00;20.70
34815;DHT22;21030;53.912;15.214;2023-12-07T10:30:42;28.80;20.70
34815;DHT22;21030;53.912;15.214;2023-12-07T10:33:11;29.10;20.70
34815;DHT22;21030;53.912;15.214;2023-12-07T10:35:41;29.00;20.40
34815;DHT22;21030;53.912;15.214;2023-12-07T10:38:10;29.10;20.50
34815;DHT22;21030;53.912;15.214;2023-12-07T10:40:37;28.50;20.50
34815;DHT22;21030;53.912;15.214;2023-12-07T10:43:06;28.70;20.60
34815;DHT22;21030;53.912;15.214;2023-12-07T10:45:34;28.40;20.70
34815;DHT22;21030;53.912;15.214;2023-12-07T10:48:10;28.80;20.70
34815;DHT22;21030;53.912;15.214;2023-12-07T10:50:42;29.10;20.50
34815;DHT22;21030;53.912;15.214;2023-12-07T10:53:19;29.20;20.60
34815;DHT22;21030;53.912;15.214;2023-12-07T10:56:10;29.10;20.40
34815;DHT22;21030;53.912;15.214;2023-12-07T10:58:37;29.10;20.50
34815;DHT22;21030;53.912;15.214;2023-12-07T11:01:07;29.20;20.30
34815;DHT22;21030;53.912;15.214;2023-12-07T11:03:36;29.50;20.20
34815;DHT22;21030;53.912;15.214;2023-12-07T11:06:04;29.20;20.40
34815;DHT22;21030;53.912;15.214;2023-12-07T11:08:46;29.00;20.30
34815;DHT22;21030;53.912;15.214;2023-12-07T11:11:54;28.60;20.90
34815;DHT22;21030;53.912;15.214;2023-12-07T11:14:24;28.70;20.90
34815;DHT22;21030;53.912;15.214;2023-12-07T11:16:52;28.60;20.70
34815;DHT22;21030;53.912;15.214;2023-12-07T11:19:43;28.80;20.60
34815;DHT22;21030;53.912;15.214;2023-12-07T11:22:12;29.00;20.70
34815;DHT22;21030;53.912;15.214;2023-12-07T11:24:56;28.60;20.50
34815;DHT22;21030;53.912;15.214;2023-12-07T11:27:32;28.60;20.90
34815;DHT22;21030;53.912;15.214;2023-12-07T11:30:00;28.80;20.80
34815;DHT22;21030;53.912;15.214;2023-12-07T11:32:28;28.50;20.70
34815;DHT22;21030;53.912;15.214;2023-12-07T11:35:04;28.60;20.70
34815;DHT22;21030;53.912;15.214;2023-12-07T11:38:04;29.10;20.70
34815;DHT22;21030;53.912;15.214;2023-12-07T11:40:36;28.50;20.60
34815;DHT22;21030;53.912;15.214;2023-12-07T11:43:04;28.60;20.70
34815;DHT22;21030;53.912;15.214;2023-12-07T11:45:40;29.00;20.70
34815;DHT22;21030;53.912;15.214;2023-12-07T11:48:27;29.30;20.60
34815;DHT22;21030;53.912;15.214;2023-12-07T11:53:37;29.30;20.40
34815;DHT22;21030;53.912;15.214;2023-12-07T11:56:07;29.50;20.30
34815;DHT22;21030;53.912;15.214;2023-12-07T11:58:36;29.60;20.60
34815;DHT22;21030;53.912;15.214;2023-12-07T12:01:07;29.60;20.20
34815;DHT22;21030;53.912;15.214;2023-12-07T12:03:36;29.40;20.30
34815;DHT22;21030;53.912;15.214;2023-12-07T12:06:05;29.20;20.40
34815;DHT22;21030;53.912;15.214;2023-12-07T12:08:34;28.80;20.60
34815;DHT22;21030;53.912;15.214;2023-12-07T12:11:02;28.60;20.60
34815;DHT22;21030;53.912;15.214;2023-12-07T12:13:32;28.60;20.80
34815;DHT22;21030;53.912;15.214;2023-12-07T12:16:00;29.00;20.60
34815;DHT22;21030;53.912;15.214;2023-12-07T12:18:31;28.80;20.50
34815;DHT22;21030;53.912;15.214;2023-12-07T12:21:00;28.90;20.60
34815;DHT22;21030;53.912;15.214;2023-12-07T12:23:27;29.30;20.50
34815;DHT22;21030;53.912;15.214;2023-12-07T12:25:56;29.50;20.40
34815;DHT22;21030;53.912;15.214;2023-12-07T12:28:25;29.60;20.30
34815;DHT22;21030;53.912;15.214;2023-12-07T12:30:53;29.40;20.30
34815;DHT22;21030;53.912;15.214;2023-12-07T12:37:02;28.90;20.60
34815;DHT22;21030;53.912;15.214;2023-12-07T12:39:34;29.40;20.40
34815;DHT22;21030;53.912;15.214;2023-12-07T12:42:05;29.50;20.30
34815;DHT22;21030;53.912;15.214;2023-12-07T12:44:32;29.30;20.50
34815;DHT22;21030;53.912;15.214;2023-12-07T12:47:08;29.50;20.30
34815;DHT22;21030;53.912;15.214;2023-12-07T12:49:37;29.80;20.20
34815;DHT22;21030;53.912;15.214;2023-12-07T12:52:14;29.90;19.90
34815;DHT22;21030;53.912;15.214;2023-12-07T12:54:43;29.80;20.10
34815;DHT22;21030;53.912;15.214;2023-12-07T12:57:11;29.80;20.10
34815;DHT22;21030;53.912;15.214;2023-12-07T12:59:38;29.80;20.00
34815;DHT22;21030;53.912;15.214;2023-12-07T13:02:06;29.90;20.10
34815;DHT22;21030;53.912;15.214;2023-12-07T13:04:37;29.90;20.00
34815;DHT22;21030;53.912;15.214;2023-12-07T13:07:08;30.00;20.10
34815;DHT22;21030;53.912;15.214;2023-12-07T13:09:36;29.60;20.00
34815;DHT22;21030;53.912;15.214;2023-12-07T13:12:05;29.60;20.10
34815;DHT22;21030;53.912;15.214;2023-12-07T13:14:32;29.60;20.30
34815;DHT22;21030;53.912;15.214;2023-12-07T13:17:06;29.70;20.20
34815;DHT22;21030;53.912;15.214;2023-12-07T13:19:36;29.70;20.20
34815;DHT22;21030;53.912;15.214;2023-12-07T13:22:03;29.70;20.20
34815;DHT22;21030;53.912;15.214;2023-12-07T13:24:31;29.70;20.10
34815;DHT22;21030;53.912;15.214;2023-12-07T13:26:58;29.90;20.10
34815;DHT22;21030;53.912;15.214;2023-12-07T13:29:27;29.60;20.30
34815;DHT22;21030;53.912;15.214;2023-12-07T13:32:03;29.60;20.30
34815;DHT22;21030;53.912;15.214;2023-12-07T13:34:30;29.70;20.30
34815;DHT22;21030;53.912;15.214;2023-12-07T13:36:58;29.40;20.20
34815;DHT22;21030;53.912;15.214;2023-12-07T13:39:25;28.90;20.30
34815;DHT22;21030;53.912;15.214;2023-12-07T13:41:57;29.10;20.70
34815;DHT22;21030;53.912;15.214;2023-12-07T13:44:27;29.20;20.60
34815;DHT22;21030;53.912;15.214;2023-12-07T13:46:55;29.30;20.40
34815;DHT22;21030;53.912;15.214;2023-12-07T13:49:25;29.40;20.30
34815;DHT22;21030;53.912;15.214;2023-12-07T13:52:01;29.60;20.30
34815;DHT22;21030;53.912;15.214;2023-12-07T13:54:38;29.30;20.50
34815;DHT22;21030;53.912;15.214;2023-12-07T13:57:23;29.20;20.50
34815;DHT22;21030;53.912;15.214;2023-12-07T13:59:54;29.30;20.50
34815;DHT22;21030;53.912;15.214;2023-12-07T14:02:22;29.40;20.50
34815;DHT22;21030;53.912;15.214;2023-12-07T14:04:49;29.30;20.40
34815;DHT22;21030;53.912;15.214;2023-12-07T14:07:19;28.90;20.60
34815;DHT22;21030;53.912;15.214;2023-12-07T14:09:49;28.90;20.70
34815;DHT22;21030;53.912;15.214;2023-12-07T14:12:25;29.00;20.70
34815;DHT22;21030;53.912;15.214;2023-12-07T14:14:54;29.10;20.50
34815;DHT22;21030;53.912;15.214;2023-12-07T14:17:22;29.30;20.40
34815;DHT22;21030;53.912;15.214;2023-12-07T14:20:12;29.50;20.50
34815;DHT22;21030;53.912;15.214;2023-12-07T14:22:59;29.70;20.30
34815;DHT22;21030;53.912;15.214;2023-12-07T14:25:31;29.80;20.20
34815;DHT22;21030;53.912;15.214;2023-12-07T14:27:58;29.90;20.00
34815;DHT22;21030;53.912;15.214;2023-12-07T14:30:27;29.80;20.10
34815;DHT22;21030;53.912;15.214;2023-12-07T14:32:54;29.60;20.30
34815;DHT22;21030;53.912;15.214;2023-12-07T14:35:21;29.40;20.40
34815;DHT22;21030;53.912;15.214;2023-12-07T14:37:49;29.60;20.20
34815;DHT22;21030;53.912;15.214;2023-12-07T14:40:17;29.70;20.30
34815;DHT22;21030;53.912;15.214;2023-12-07T14:42:46;29.60;20.30
34815;DHT22;21030;53.912;15.214;2023-12-07T14:45:13;29.90;20.30
34815;DHT22;21030;53.912;15.214;2023-12-07T14:47:42;29.80;20.30
34815;DHT22;21030;53.912;15.214;2023-12-07T14:50:10;29.70;20.20
34815;DHT22;21030;53.912;15.214;2023-12-07T14:52:38;29.70;20.30
34815;DHT22;21030;53.912;15.214;2023-12-07T14:55:05;29.60;20.20
34815;DHT22;21030;53.912;15.214;2023-12-07T14:57:33;29.70;20.30
34815;DHT22;21030;53.912;15.214;2023-12-07T15:00:00;29.90;20.30
34815;DHT22;21030;53.912;15.214;2023-12-07T15:02:29;29.60;20.00
34815;DHT22;21030;53.912;15.214;2023-12-07T15:04:57;29.60;20.30
34815;DHT22;21030;53.912;15.214;2023-12-07T15:07:24;29.50;20.30
34815;DHT22;21030;53.912;15.214;2023-12-07T15:09:51;29.20;20.30
34815;DHT22;21030;53.912;15.214;2023-12-07T15:12:19;29.10;20.70
34815;DHT22;21030;53.912;15.214;2023-12-07T15:14:47;29.10;20.60
34815;DHT22;21030;53.912;15.214;2023-12-07T15:17:15;29.20;20.60
34815;DHT22;21030;53.912;15.214;2023-12-07T15:19:42;29.30;20.40
34815;DHT22;21030;53.912;15.214;2023-12-07T15:22:10;29.50;20.40
34815;DHT22;21030;53.912;15.214;2023-12-07T15:24:37;29.00;20.30
34815;DHT22;21030;53.912;15.214;2023-12-07T15:27:07;28.90;20.60
34815;DHT22;21030;53.912;15.214;2023-12-07T15:29:35;28.90;20.60
34815;DHT22;21030;53.912;15.214;2023-12-07T15:32:04;28.70;20.80
34815;DHT22;21030;53.912;15.214;2023-12-07T15:34:31;28.80;20.60
34815;DHT22;21030;53.912;15.214;2023-12-07T15:37:07;28.60;20.70